createdAt,value
2023-03-22T00:00:52.916Z,8.68
2023-03-22T00:03:58.976Z,7.95
2023-03-22T00:07:04.909Z,8.50
2023-03-22T00:10:11.730Z,8.70
2023-03-22T00:13:17.574Z,9.38
2023-03-22T00:16:25.980Z,8.50
2023-03-22T00:19:34.394Z,8.52
2023-03-22T00:22:40.155Z,8.77
2023-03-22T00:25:46.705Z,8.73
2023-03-22T00:28:52.479Z,8.30
2023-03-22T00:32:00.845Z,9.25
2023-03-22T00:35:07.589Z,9.13
2023-03-22T00:38:14.626Z,8.20
2023-03-22T00:41:21.539Z,8.13
2023-03-22T00:44:27.677Z,8.00
2023-03-22T00:47:36.509Z,7.63
2023-03-22T00:50:42.755Z,8.30
2023-03-22T00:53:50.135Z,8.07
2023-03-22T00:56:56.032Z,8.88
2023-03-22T01:00:08.716Z,7.03
2023-03-22T01:03:17.451Z,7.18
2023-03-22T01:06:23.656Z,6.25
2023-03-22T01:09:31.217Z,7.07
2023-03-22T01:12:37.008Z,6.70
2023-03-22T01:15:43.156Z,6.80
2023-03-22T01:18:52.185Z,6.90
2023-03-22T01:21:57.859Z,7.40
2023-03-22T01:25:03.709Z,7.18
2023-03-22T01:28:10.264Z,6.70
2023-03-22T01:31:16.326Z,7.22
2023-03-22T01:34:25.547Z,7.40
2023-03-22T01:37:33.102Z,8.07
2023-03-22T01:40:39.274Z,8.65
2023-03-22T01:43:46.048Z,8.25
2023-03-22T01:46:52.779Z,8.15
2023-03-22T01:50:02.087Z,7.38
2023-03-22T01:53:10.731Z,7.47
2023-03-22T01:56:16.947Z,7.07
2023-03-22T01:59:22.846Z,7.78
2023-03-22T02:02:55.553Z,8.20
2023-03-22T02:06:10.831Z,7.95
2023-03-22T02:09:17.718Z,7.88
2023-03-22T02:12:31.434Z,8.60
2023-03-22T02:15:47.327Z,8.88
2023-03-22T02:19:23.008Z,8.32
2023-03-22T02:22:48.205Z,8.98
2023-03-22T02:26:17.455Z,7.55
2023-03-22T02:29:26.648Z,7.28
2023-03-22T02:32:44.486Z,8.05
2023-03-22T02:36:12.725Z,7.03
2023-03-22T02:39:31.915Z,7.35
2023-03-22T02:42:44.938Z,7.38
2023-03-22T02:45:53.554Z,7.25
2023-03-22T02:49:03.516Z,7.80
2023-03-22T02:52:17.785Z,7.55
2023-03-22T02:55:30.746Z,7.28
2023-03-22T02:58:39.488Z,7.85
2023-03-22T03:01:47.628Z,7.43
2023-03-22T03:04:54.606Z,7.53
2023-03-22T03:08:05.571Z,7.32
2023-03-22T03:11:14.835Z,5.70
2023-03-22T03:14:23.956Z,6.00
2023-03-22T03:17:38.823Z,6.55
2023-03-22T03:20:52.501Z,4.85
2023-03-22T03:24:01.520Z,6.03
2023-03-22T03:27:11.570Z,5.70
2023-03-22T03:30:19.552Z,5.10
2023-03-22T03:33:28.456Z,5.55
2023-03-22T03:36:35.765Z,5.47
2023-03-22T03:39:44.476Z,4.88
2023-03-22T03:42:56.637Z,5.05
2023-03-22T03:46:03.411Z,5.32
2023-03-22T03:49:10.114Z,4.30
2023-03-22T03:52:16.422Z,4.18
2023-03-22T03:55:22.311Z,4.18
2023-03-22T03:58:30.808Z,3.95
2023-03-22T04:04:51.072Z,3.17
2023-03-22T04:07:58.560Z,3.23
2023-03-22T04:11:04.228Z,5.25
2023-03-22T04:14:13.786Z,6.63
2023-03-22T04:17:19.221Z,6.47
2023-03-22T04:20:26.477Z,6.25
2023-03-22T04:23:33.625Z,5.60
2023-03-22T04:26:39.715Z,5.35
2023-03-22T04:30:02.858Z,5.75
2023-03-22T04:33:32.762Z,5.18
2023-03-22T04:36:51.733Z,4.22
2023-03-22T04:40:07.175Z,4.38
2023-03-22T04:43:26.264Z,3.35
2023-03-22T04:46:43.132Z,2.83
2023-03-22T04:49:49.912Z,2.70
2023-03-22T04:52:56.235Z,2.53
2023-03-22T04:56:05.748Z,2.67
2023-03-22T04:59:12.930Z,2.65
2023-03-22T05:02:21.639Z,2.95
2023-03-22T05:05:28.956Z,2.70
2023-03-22T05:08:35.668Z,2.67
2023-03-22T05:11:42.450Z,2.88
2023-03-22T05:15:07.131Z,2.80
2023-03-22T05:18:20.804Z,2.78
2023-03-22T05:21:28.702Z,2.50
2023-03-22T05:24:37.256Z,2.72
2023-03-22T05:27:43.461Z,2.60
2023-03-22T05:31:14.944Z,2.70
2023-03-22T05:34:36.297Z,2.53
2023-03-22T05:37:58.593Z,2.70
2023-03-22T05:41:07.243Z,2.20
2023-03-22T05:44:13.852Z,2.60
2023-03-22T05:47:28.969Z,2.25
2023-03-22T05:50:44.181Z,2.60
2023-03-22T05:56:58.994Z,1.80
2023-03-22T06:00:06.089Z,1.65
2023-03-22T06:03:18.626Z,1.77
2023-03-22T06:06:34.059Z,1.33
2023-03-22T06:10:08.256Z,1.73
2023-03-22T06:13:15.081Z,1.58
2023-03-22T06:16:21.128Z,1.40
2023-03-22T06:19:27.723Z,1.60
2023-03-22T06:22:36.983Z,1.20
2023-03-22T06:25:43.204Z,1.70
2023-03-22T06:28:49.090Z,1.77
2023-03-22T06:31:55.462Z,2.03
2023-03-22T06:35:01.990Z,2.20
2023-03-22T06:38:11.468Z,1.77
2023-03-22T06:41:17.744Z,1.98
2023-03-22T06:44:23.744Z,2.30
2023-03-22T06:47:29.691Z,1.77
2023-03-22T06:50:51.853Z,2.40
2023-03-22T06:54:06.513Z,2.65
2023-03-22T06:57:12.391Z,2.30
2023-03-22T07:00:19.175Z,2.25
2023-03-22T07:03:25.484Z,2.60
2023-03-22T07:06:35.014Z,2.25
2023-03-22T07:09:44.687Z,2.60
2023-03-22T07:12:51.619Z,2.22
2023-03-22T07:15:59.503Z,2.58
2023-03-22T07:19:15.007Z,2.40
2023-03-22T07:22:22.669Z,2.00
2023-03-22T07:25:33.139Z,1.92
2023-03-22T07:28:53.190Z,2.25
2023-03-22T07:32:05.010Z,2.00
2023-03-22T07:35:27.565Z,1.90
2023-03-22T07:38:33.622Z,2.15
2023-03-22T07:41:42.869Z,2.33
2023-03-22T07:45:09.722Z,2.50
2023-03-22T07:48:22.625Z,2.00
2023-03-22T07:51:46.068Z,2.30
2023-03-22T07:54:52.082Z,2.30
2023-03-22T07:58:00.719Z,2.05
2023-03-22T08:04:30.999Z,2.00
2023-03-22T08:07:57.414Z,1.60
2023-03-22T08:11:03.279Z,1.40
2023-03-22T08:14:12.109Z,1.10
2023-03-22T08:17:17.927Z,1.50
2023-03-22T08:20:26.750Z,1.27
2023-03-22T08:23:41.806Z,1.48
2023-03-22T08:26:51.358Z,1.10
2023-03-22T08:30:22.826Z,0.98
2023-03-22T08:33:28.988Z,1.30
2023-03-22T08:36:35.013Z,1.45
2023-03-22T08:39:43.250Z,1.70
2023-03-22T08:42:54.706Z,1.35
2023-03-22T08:46:03.477Z,1.92
2023-03-22T08:49:11.179Z,1.73
2023-03-22T08:52:21.138Z,1.52
2023-03-22T08:55:35.825Z,1.50
2023-03-22T08:58:50.376Z,1.73
2023-03-22T09:02:28.211Z,1.70
2023-03-22T09:05:35.926Z,1.30
2023-03-22T09:08:42.365Z,1.50
2023-03-22T09:11:51.944Z,1.50
2023-03-22T09:14:58.020Z,1.27
2023-03-22T09:18:09.801Z,1.33
2023-03-22T09:21:16.517Z,1.60
2023-03-22T09:24:36.565Z,1.73
2023-03-22T09:27:43.362Z,2.80
2023-03-22T09:30:49.786Z,2.00
2023-03-22T09:33:58.504Z,1.80
2023-03-22T09:37:05.433Z,19.42
2023-03-22T09:40:24.146Z,2.40
2023-03-22T09:43:33.178Z,3.05
2023-03-22T09:46:40.598Z,1.63
2023-03-22T09:49:53.978Z,2.00
2023-03-22T09:52:59.867Z,2.00
2023-03-22T09:56:09.689Z,2.72
2023-03-22T09:59:18.650Z,1.83
2023-03-22T10:02:31.096Z,1.98
2023-03-22T10:05:43.028Z,2.00
2023-03-22T10:08:53.511Z,1.92
2023-03-22T10:12:05.249Z,2.30
2023-03-22T10:15:16.422Z,1.90
2023-03-22T10:18:24.015Z,1.70
2023-03-22T10:21:32.801Z,1.80
2023-03-22T10:24:39.926Z,1.92
2023-03-22T10:27:46.272Z,1.92
2023-03-22T10:30:54.856Z,1.88
2023-03-22T10:34:02.782Z,2.10
2023-03-22T10:37:13.415Z,2.47
2023-03-22T10:40:21.915Z,1.50
2023-03-22T10:43:31.440Z,1.90
2023-03-22T10:46:39.812Z,1.70
2023-03-22T10:49:47.543Z,1.67
2023-03-22T10:52:58.274Z,1.60
2023-03-22T10:56:04.233Z,1.75
2023-03-22T10:59:12.470Z,1.50
2023-03-22T11:02:25.677Z,1.55
2023-03-22T11:05:32.228Z,1.50
2023-03-22T11:08:48.465Z,1.40
2023-03-22T11:11:55.336Z,1.40
2023-03-22T11:15:00.850Z,1.42
2023-03-22T11:18:08.687Z,1.48
2023-03-22T11:21:15.285Z,1.70
2023-03-22T11:24:24.402Z,1.35
2023-03-22T11:27:31.492Z,1.13
2023-03-22T11:30:37.516Z,1.45
2023-03-22T11:33:48.625Z,1.27
2023-03-22T11:36:57.423Z,1.30
2023-03-22T11:40:11.127Z,1.15
2023-03-22T11:43:22.248Z,1.52
2023-03-22T11:46:28.538Z,1.50
2023-03-22T11:49:39.778Z,1.70
2023-03-22T11:52:49.857Z,1.40
2023-03-22T11:56:00.528Z,1.10
2023-03-22T11:59:08.224Z,1.80
2023-03-22T12:02:18.039Z,1.20
2023-03-22T12:05:24.719Z,0.90
2023-03-22T12:08:31.986Z,1.30
2023-03-22T12:11:42.970Z,1.17
2023-03-22T12:14:52.099Z,1.20
2023-03-22T12:17:59.740Z,0.82
2023-03-22T12:21:05.591Z,1.13
2023-03-22T12:24:19.441Z,1.00
2023-03-22T12:27:29.295Z,1.55
2023-03-22T12:30:37.197Z,2.08
2023-03-22T12:33:46.836Z,1.10
2023-03-22T12:36:54.624Z,2.20
2023-03-22T12:40:02.753Z,1.37
2023-03-22T12:43:15.082Z,1.08
2023-03-22T12:46:24.107Z,1.10
2023-03-22T12:49:31.776Z,1.10
2023-03-22T12:52:45.631Z,1.00
2023-03-22T12:55:52.927Z,1.10
2023-03-22T12:59:03.851Z,1.10
2023-03-22T13:02:16.351Z,1.02
2023-03-22T13:05:22.198Z,1.38
2023-03-22T13:08:27.914Z,1.00
2023-03-22T13:11:34.082Z,1.73
2023-03-22T13:14:56.596Z,1.20
2023-03-22T13:18:05.928Z,1.55
2023-03-22T13:21:12.993Z,1.30
2023-03-22T13:24:27.199Z,1.13
2023-03-22T13:27:43.973Z,1.30
2023-03-22T13:30:53.648Z,1.95
2023-03-22T13:34:05.254Z,1.75
2023-03-22T13:37:14.974Z,1.50
2023-03-22T13:40:30.070Z,1.33
2023-03-22T13:43:37.189Z,1.30
2023-03-22T13:46:52.748Z,1.35
2023-03-22T13:50:06.838Z,1.45
2023-03-22T13:53:18.322Z,1.55
2023-03-22T13:56:34.052Z,1.50
2023-03-22T14:00:08.926Z,1.17
2023-03-22T14:03:20.040Z,1.30
2023-03-22T14:09:36.025Z,1.20
2023-03-22T14:12:49.249Z,1.13
2023-03-22T14:15:56.880Z,1.10
2023-03-22T14:19:03.211Z,1.33
2023-03-22T14:53:32.783Z,3.10
2023-03-22T14:56:43.669Z,2.28
2023-03-22T14:59:51.401Z,2.08
2023-03-22T15:03:01.530Z,1.80
2023-03-22T15:06:11.698Z,2.10
2023-03-22T15:09:19.953Z,3.40
2023-03-22T15:12:29.342Z,3.95
2023-03-22T15:15:36.289Z,3.13
2023-03-22T15:18:42.391Z,4.22
2023-03-22T15:21:48.075Z,4.10
2023-03-22T15:24:55.453Z,2.85
2023-03-22T15:28:04.731Z,3.33
2023-03-22T15:31:12.997Z,2.85
2023-03-22T15:34:21.623Z,4.28
2023-03-22T15:37:30.139Z,3.05
2023-03-22T15:40:40.713Z,2.75
2023-03-22T15:43:49.526Z,2.15
2023-03-22T15:46:59.189Z,1.90
2023-03-22T15:50:07.204Z,1.92
2023-03-22T15:53:26.887Z,2.50
2023-03-22T15:56:40.099Z,2.50
2023-03-22T15:59:57.075Z,1.85
2023-03-22T16:03:03.387Z,2.28
2023-03-22T16:06:12.747Z,2.33
2023-03-22T16:09:19.151Z,1.95
2023-03-22T16:12:25.008Z,2.00
2023-03-22T16:15:34.657Z,2.08
2023-03-22T16:18:39.883Z,1.98
2023-03-22T16:21:46.240Z,2.30
2023-03-22T16:24:51.982Z,2.33
2023-03-22T16:27:57.552Z,2.50
2023-03-22T16:31:07.126Z,2.00
2023-03-22T16:34:14.215Z,2.53
2023-03-22T16:37:20.913Z,2.20
2023-03-22T16:40:28.938Z,2.63
2023-03-22T16:43:34.357Z,1.98
2023-03-22T16:46:42.152Z,2.25
2023-03-22T16:49:48.072Z,2.33
2023-03-22T16:52:54.008Z,2.10
2023-03-22T16:55:59.797Z,2.42
2023-03-22T16:59:05.026Z,2.47
2023-03-22T17:02:17.285Z,2.38
2023-03-22T17:05:23.495Z,2.67
2023-03-22T17:08:29.169Z,2.60
2023-03-22T17:11:34.607Z,2.40
2023-03-22T17:14:40.430Z,2.38
2023-03-22T17:17:48.598Z,2.50
2023-03-22T17:20:53.937Z,2.53
2023-03-22T17:23:59.427Z,3.67
2023-03-22T17:27:05.075Z,3.78
2023-03-22T17:30:11.079Z,3.97
2023-03-22T17:33:19.910Z,3.30
2023-03-22T17:36:25.389Z,3.33
2023-03-22T17:42:53.697Z,3.40
2023-03-22T17:46:38.170Z,3.33
2023-03-22T17:49:27.137Z,3.58
2023-03-22T17:52:32.442Z,2.90
2023-03-22T17:58:47.912Z,3.85
2023-03-22T18:01:53.601Z,3.25
2023-03-22T18:05:01.890Z,3.35
2023-03-22T18:08:26.255Z,3.25
2023-03-22T18:11:33.254Z,3.55
2023-03-22T18:14:41.118Z,3.53
2023-03-22T18:17:47.813Z,3.30
2023-03-22T18:20:57.822Z,3.38
2023-03-22T18:24:04.013Z,3.30
2023-03-22T18:27:11.362Z,3.65
2023-03-22T18:30:17.918Z,4.38
2023-03-22T18:33:23.450Z,4.22
2023-03-22T18:36:32.431Z,3.53
2023-03-22T18:40:17.590Z,3.10
2023-03-22T18:43:03.523Z,3.85
2023-03-22T18:49:37.968Z,2.70
2023-03-22T18:53:07.805Z,2.78
2023-03-22T18:56:17.542Z,3.78
2023-03-22T18:59:23.498Z,3.28
2023-03-22T19:02:39.362Z,3.35
2023-03-22T19:05:46.088Z,3.50
2023-03-22T19:08:54.326Z,3.00
2023-03-22T19:12:00.127Z,3.25
2023-03-22T19:15:38.274Z,3.78
2023-03-22T19:18:31.024Z,3.53
2023-03-22T19:21:37.123Z,3.00
2023-03-22T19:24:45.177Z,2.67
2023-03-22T19:27:52.020Z,3.08
2023-03-22T19:30:58.605Z,3.40
2023-03-22T19:34:06.505Z,3.35
2023-03-22T19:37:12.237Z,3.28
2023-03-22T19:41:23.313Z,3.13
2023-03-22T19:43:45.668Z,2.83
2023-03-22T19:46:54.833Z,3.25
2023-03-22T19:50:00.527Z,4.05
2023-03-22T19:53:42.580Z,3.20
2023-03-22T19:56:35.319Z,3.35
2023-03-22T19:59:40.614Z,3.40
2023-03-22T20:02:46.436Z,2.97
2023-03-22T20:05:52.151Z,2.92
2023-03-22T20:08:57.892Z,2.38
2023-03-22T20:12:05.799Z,2.63
2023-03-22T20:18:16.841Z,2.42
2023-03-22T20:21:22.646Z,2.65
2023-03-22T20:24:27.882Z,2.65
2023-03-22T20:27:37.930Z,3.03
2023-03-22T20:30:43.326Z,2.75
2023-03-22T20:33:49.131Z,2.22
2023-03-22T20:36:54.372Z,2.97
2023-03-22T20:39:59.733Z,2.42
2023-03-22T20:43:08.231Z,2.15
2023-03-22T20:46:14.021Z,1.90
2023-03-22T20:49:19.166Z,2.50
2023-03-22T20:52:24.744Z,2.10
2023-03-22T20:55:30.558Z,2.03
2023-03-22T20:58:38.718Z,2.08
2023-03-22T21:01:44.008Z,2.65
2023-03-22T21:04:49.603Z,2.10
2023-03-22T21:07:55.564Z,1.95
2023-03-22T21:11:01.980Z,1.98
2023-03-22T21:14:10.790Z,1.90
2023-03-22T21:17:19.323Z,1.83
2023-03-22T21:20:32.373Z,2.40
2023-03-22T21:23:38.755Z,2.03
2023-03-22T21:26:44.091Z,2.58
2023-03-22T21:29:52.256Z,2.10
2023-03-22T21:32:57.567Z,1.83
2023-03-22T21:36:03.630Z,2.20
2023-03-22T21:39:10.266Z,3.03
2023-03-22T21:42:16.691Z,2.35
2023-03-22T21:45:26.097Z,2.55
2023-03-22T21:48:32.892Z,2.90
2023-03-22T21:51:38.170Z,2.40
2023-03-22T21:54:46.475Z,2.58
2023-03-22T21:57:51.962Z,2.22
2023-03-22T22:01:02.421Z,2.50
2023-03-22T22:04:08.615Z,2.95
2023-03-22T22:07:15.234Z,2.97
2023-03-22T22:10:21.026Z,3.22
2023-03-22T22:13:27.101Z,2.90
2023-03-22T22:16:35.558Z,2.85
2023-03-22T22:22:48.165Z,3.08
2023-03-22T22:25:54.772Z,3.08
2023-03-22T22:29:01.002Z,3.78
2023-03-22T22:32:11.098Z,3.17
2023-03-22T22:35:16.823Z,3.20
2023-03-22T22:38:22.278Z,3.28
2023-03-22T22:41:27.993Z,3.30
2023-03-22T22:44:33.420Z,3.20
2023-03-22T22:47:41.577Z,3.40
2023-03-22T22:50:46.876Z,3.17
2023-03-22T22:53:52.649Z,3.00
2023-03-22T22:56:57.904Z,2.75
2023-03-22T23:00:03.624Z,3.10
2023-03-22T23:03:12.080Z,2.70
2023-03-22T23:06:20.658Z,2.60
2023-03-22T23:09:28.031Z,2.50
2023-03-22T23:12:33.784Z,2.20
2023-03-22T23:15:39.419Z,2.53
2023-03-22T23:18:54.996Z,2.00
2023-03-22T23:22:03.499Z,2.15
2023-03-22T23:25:09.590Z,2.45
2023-03-22T23:28:17.787Z,2.22
2023-03-22T23:31:24.247Z,3.38
2023-03-22T23:34:32.565Z,2.08
2023-03-22T23:37:38.523Z,2.58
2023-03-22T23:40:44.654Z,2.35
2023-03-22T23:43:50.816Z,2.80
2023-03-22T23:46:56.425Z,2.72
2023-03-22T23:50:04.421Z,2.58
2023-03-22T23:53:10.041Z,2.58
2023-03-22T23:56:17.445Z,2.85
2023-03-22T23:59:23.244Z,3.40
